createdAt,value
2023-04-27T00:01:14.279Z,2.45
2023-04-27T00:03:41.831Z,2.10
2023-04-27T00:06:09.260Z,3.28
2023-04-27T00:08:36.287Z,2.65
2023-04-27T00:11:03.368Z,5.47
2023-04-27T00:13:30.337Z,2.75
2023-04-27T00:15:57.349Z,2.30
2023-04-27T00:18:24.328Z,2.28
2023-04-27T00:20:51.239Z,2.42
2023-04-27T00:23:18.254Z,2.05
2023-04-27T00:25:45.142Z,1.98
2023-04-27T00:28:12.097Z,5.30
2023-04-27T00:30:39.034Z,1.95
2023-04-27T00:33:06.052Z,2.47
2023-04-27T00:35:33.554Z,4.88
2023-04-27T00:38:00.478Z,3.50
2023-04-27T00:40:27.445Z,4.35
2023-04-27T00:42:54.374Z,2.58
2023-04-27T00:45:21.388Z,4.85
2023-04-27T00:47:48.366Z,5.63
2023-04-27T00:50:15.402Z,2.10
2023-04-27T00:52:42.460Z,2.28
2023-04-27T00:55:09.508Z,4.93
2023-04-27T00:57:36.469Z,3.63
2023-04-27T01:00:04.034Z,3.67
2023-04-27T01:02:31.175Z,2.97
2023-04-27T01:04:58.163Z,2.33
2023-04-27T01:07:26.164Z,2.67
2023-04-27T01:09:53.225Z,2.90
2023-04-27T01:12:20.182Z,2.33
2023-04-27T01:14:47.170Z,5.82
2023-04-27T01:17:14.132Z,2.00
2023-04-27T01:19:41.283Z,4.03
2023-04-27T01:22:08.258Z,2.05
2023-04-27T01:24:35.305Z,1.98
2023-04-27T01:27:02.381Z,2.53
2023-04-27T01:29:29.285Z,3.38
2023-04-27T01:31:56.267Z,3.75
2023-04-27T01:34:23.265Z,3.75
2023-04-27T01:36:50.234Z,1.55
2023-04-27T01:39:17.151Z,2.25
2023-04-27T01:41:44.029Z,5.85
2023-04-27T01:44:10.962Z,1.88
2023-04-27T01:46:37.993Z,1.70
2023-04-27T01:49:04.993Z,4.32
2023-04-27T01:51:31.918Z,2.50
2023-04-27T01:53:59.017Z,1.77
2023-04-27T01:56:25.957Z,2.80
2023-04-27T01:58:55.964Z,2.95
2023-04-27T02:01:23.054Z,2.95
2023-04-27T02:03:50.190Z,2.72
2023-04-27T02:06:17.349Z,2.42
2023-04-27T02:08:44.247Z,2.53
2023-04-27T02:11:11.190Z,1.80
2023-04-27T02:13:38.103Z,2.08
2023-04-27T02:16:05.391Z,2.88
2023-04-27T02:18:32.762Z,2.47
2023-04-27T02:20:59.799Z,1.92
2023-04-27T02:23:26.745Z,1.77
2023-04-27T02:25:56.231Z,3.13
2023-04-27T02:28:23.148Z,4.78
2023-04-27T02:30:50.722Z,2.15
2023-04-27T02:33:17.576Z,2.83
2023-04-27T02:35:44.582Z,2.03
2023-04-27T02:38:11.502Z,2.90
2023-04-27T02:40:38.407Z,1.38
2023-04-27T02:43:05.316Z,2.10
2023-04-27T02:45:32.286Z,1.65
2023-04-27T02:47:59.328Z,1.60
2023-04-27T02:50:26.393Z,3.05
2023-04-27T02:52:55.696Z,3.60
2023-04-27T02:55:22.698Z,1.65
2023-04-27T02:57:49.732Z,1.80
2023-04-27T03:00:16.937Z,2.20
2023-04-27T03:02:44.209Z,1.80
2023-04-27T03:05:11.309Z,1.58
2023-04-27T03:07:38.281Z,3.35
2023-04-27T03:10:05.745Z,2.75
2023-04-27T03:12:32.796Z,2.58
2023-04-27T03:14:59.669Z,1.92
2023-04-27T03:17:27.264Z,2.53
2023-04-27T03:19:54.277Z,2.55
2023-04-27T03:22:21.239Z,2.75
2023-04-27T03:24:48.223Z,1.77
2023-04-27T03:27:15.231Z,2.55
2023-04-27T03:29:42.156Z,1.98
2023-04-27T03:32:09.245Z,2.92
2023-04-27T03:34:36.185Z,2.30
2023-04-27T03:37:03.111Z,1.98
2023-04-27T03:39:30.011Z,2.35
2023-04-27T03:41:56.868Z,4.50
2023-04-27T03:44:23.949Z,1.98
2023-04-27T03:46:50.890Z,3.03
2023-04-27T03:49:17.878Z,2.25
2023-04-27T03:51:45.123Z,1.98
2023-04-27T03:54:11.975Z,3.88
2023-04-27T03:56:38.896Z,2.83
2023-04-27T03:59:05.804Z,3.92
2023-04-27T04:01:32.775Z,3.08
2023-04-27T04:03:59.865Z,2.20
2023-04-27T04:06:26.992Z,2.72
2023-04-27T04:08:54.603Z,3.38
2023-04-27T04:11:21.528Z,2.20
2023-04-27T04:13:48.459Z,1.98
2023-04-27T04:16:15.437Z,2.63
2023-04-27T04:18:42.510Z,2.22
2023-04-27T04:21:10.050Z,2.65
2023-04-27T04:23:37.650Z,1.83
2023-04-27T04:26:04.715Z,3.00
2023-04-27T04:28:31.750Z,2.85
2023-04-27T04:30:58.705Z,2.75
2023-04-27T04:33:25.790Z,2.33
2023-04-27T04:35:52.740Z,2.33
2023-04-27T04:38:19.655Z,2.25
2023-04-27T04:40:46.612Z,3.72
2023-04-27T04:43:13.704Z,1.90
2023-04-27T04:45:40.686Z,1.80
2023-04-27T04:48:07.717Z,2.55
2023-04-27T04:50:34.623Z,2.50
2023-04-27T04:53:01.510Z,1.88
2023-04-27T04:55:28.456Z,2.53
2023-04-27T04:57:55.376Z,4.22
2023-04-27T05:00:22.647Z,6.35
2023-04-27T05:02:49.716Z,3.72
2023-04-27T05:05:16.861Z,5.03
2023-04-27T05:07:43.809Z,3.97
2023-04-27T05:10:10.879Z,3.20
2023-04-27T05:12:37.767Z,3.78
2023-04-27T05:15:05.646Z,3.05
2023-04-27T05:17:32.572Z,3.60
2023-04-27T05:19:59.598Z,2.28
2023-04-27T05:22:26.539Z,1.77
2023-04-27T05:24:53.467Z,2.05
2023-04-27T05:27:20.445Z,3.85
2023-04-27T05:29:47.313Z,3.75
2023-04-27T05:32:14.265Z,2.75
2023-04-27T05:34:41.185Z,2.95
2023-04-27T05:37:08.075Z,2.08
2023-04-27T05:39:35.072Z,2.25
2023-04-27T05:42:02.010Z,2.05
2023-04-27T05:44:28.935Z,3.45
2023-04-27T05:46:55.891Z,1.50
2023-04-27T05:49:23.380Z,3.22
2023-04-27T05:51:50.254Z,3.17
2023-04-27T05:54:17.217Z,2.85
2023-04-27T05:56:44.103Z,1.85
2023-04-27T05:59:11.047Z,3.78
2023-04-27T06:01:38.036Z,2.33
2023-04-27T06:04:05.139Z,2.67
2023-04-27T06:06:32.497Z,3.35
2023-04-27T06:08:59.455Z,2.33
2023-04-27T06:11:26.417Z,4.47
2023-04-27T06:13:53.269Z,2.75
2023-04-27T06:16:20.187Z,3.65
2023-04-27T06:18:48.506Z,3.53
2023-04-27T06:21:15.523Z,4.97
2023-04-27T06:23:42.408Z,4.22
2023-04-27T06:26:09.411Z,6.05
2023-04-27T06:28:36.340Z,5.20
2023-04-27T06:31:03.461Z,7.55
2023-04-27T06:33:30.368Z,4.90
2023-04-27T06:35:57.342Z,3.78
2023-04-27T06:38:24.312Z,6.00
2023-04-27T06:40:51.981Z,7.38
2023-04-27T06:43:19.144Z,6.28
2023-04-27T06:45:46.162Z,5.63
2023-04-27T06:48:13.249Z,5.70
2023-04-27T06:50:40.202Z,6.82
2023-04-27T06:53:07.186Z,4.88
2023-04-27T06:55:34.601Z,7.05
2023-04-27T06:58:02.167Z,7.75
2023-04-27T07:00:29.361Z,8.05
2023-04-27T07:02:56.365Z,8.27
2023-04-27T07:05:23.249Z,7.55
2023-04-27T07:07:50.239Z,8.15
2023-04-27T07:10:17.209Z,7.60
2023-04-27T07:12:44.158Z,6.05
2023-04-27T07:15:11.144Z,6.18
2023-04-27T07:17:38.312Z,8.20
2023-04-27T07:20:06.701Z,6.63
2023-04-27T07:22:34.074Z,6.65
2023-04-27T07:25:01.025Z,6.22
2023-04-27T07:27:27.938Z,5.47
2023-04-27T07:29:54.904Z,6.93
2023-04-27T07:32:22.204Z,5.32
2023-04-27T07:34:53.499Z,6.30
2023-04-27T07:37:22.245Z,7.25
2023-04-27T07:39:50.371Z,6.07
2023-04-27T07:42:17.781Z,7.60
2023-04-27T07:44:44.840Z,8.13
2023-04-27T07:47:11.770Z,6.97
2023-04-27T07:49:38.734Z,6.95
2023-04-27T07:52:05.853Z,6.32
2023-04-27T07:54:32.885Z,7.63
2023-04-27T07:56:59.789Z,7.35
2023-04-27T07:59:29.558Z,9.88
2023-04-27T08:02:07.135Z,7.90
2023-04-27T08:04:43.639Z,9.18
2023-04-27T08:07:11.257Z,6.95
2023-04-27T08:09:38.632Z,10.80
2023-04-27T08:12:05.708Z,7.43
2023-04-27T08:14:35.148Z,8.82
2023-04-27T08:17:02.378Z,7.97
2023-04-27T08:19:29.522Z,9.00
2023-04-27T08:21:56.555Z,7.43
2023-04-27T08:24:23.459Z,9.75
2023-04-27T08:26:50.388Z,11.15
2023-04-27T08:29:26.865Z,7.82
2023-04-27T08:31:56.932Z,9.25
2023-04-27T08:34:24.273Z,10.07
2023-04-27T08:36:51.211Z,10.80
2023-04-27T08:39:18.488Z,10.90
2023-04-27T08:41:45.570Z,7.63
2023-04-27T08:44:12.530Z,8.50
2023-04-27T08:46:39.682Z,10.20
2023-04-27T08:49:06.657Z,11.88
2023-04-27T08:51:33.898Z,9.07
2023-04-27T08:54:00.816Z,9.25
2023-04-27T08:56:29.303Z,9.73
2023-04-27T08:58:57.205Z,7.47
2023-04-27T09:01:24.862Z,9.52
2023-04-27T09:04:01.586Z,10.70
2023-04-27T09:06:33.774Z,8.10
2023-04-27T09:09:00.951Z,8.55
2023-04-27T09:11:32.899Z,9.02
2023-04-27T09:14:00.906Z,10.02
2023-04-27T09:16:29.114Z,7.90
2023-04-27T09:18:57.346Z,6.82
2023-04-27T09:21:28.421Z,9.07
2023-04-27T09:23:55.764Z,7.93
2023-04-27T09:26:27.387Z,9.35
2023-04-27T09:28:55.817Z,9.68
2023-04-27T09:31:30.760Z,7.60
2023-04-27T09:33:57.797Z,6.20
2023-04-27T09:36:25.077Z,9.68
2023-04-27T09:38:52.291Z,9.60
2023-04-27T09:41:19.713Z,6.30
2023-04-27T09:43:47.008Z,6.65
2023-04-27T09:46:14.614Z,8.68
2023-04-27T09:48:41.709Z,7.28
2023-04-27T09:51:08.938Z,6.85
2023-04-27T09:53:40.612Z,7.55
2023-04-27T09:56:16.736Z,6.10
2023-04-27T09:59:17.007Z,7.50
2023-04-27T10:01:50.127Z,7.38
2023-04-27T10:04:59.969Z,8.90
2023-04-27T10:07:27.373Z,6.70
2023-04-27T10:09:54.379Z,8.23
2023-04-27T10:12:33.871Z,6.95
2023-04-27T10:15:10.989Z,6.88
2023-04-27T10:17:38.136Z,7.82
2023-04-27T10:20:08.517Z,8.27
2023-04-27T10:22:49.058Z,8.48
2023-04-27T10:25:28.355Z,7.30
2023-04-27T10:28:00.394Z,5.90
2023-04-27T10:30:35.596Z,8.43
2023-04-27T10:33:08.765Z,6.70
2023-04-27T10:35:36.955Z,11.13
2023-04-27T10:38:11.516Z,8.25
2023-04-27T10:40:38.734Z,8.32
2023-04-27T10:43:13.527Z,7.65
2023-04-27T10:45:41.435Z,6.97
2023-04-27T10:48:08.575Z,6.00
2023-04-27T10:50:35.665Z,7.80
2023-04-27T10:53:06.882Z,7.32
2023-04-27T10:55:34.384Z,6.53
2023-04-27T10:58:01.631Z,6.00
2023-04-27T11:00:41.508Z,6.53
2023-04-27T11:03:10.760Z,6.28
2023-04-27T11:05:37.725Z,6.35
2023-04-27T11:08:09.699Z,5.30
2023-04-27T11:10:48.748Z,6.88
2023-04-27T11:13:17.666Z,5.57
2023-04-27T11:16:05.774Z,6.97
2023-04-27T11:18:32.802Z,6.35
2023-04-27T11:21:10.344Z,6.05
2023-04-27T11:23:37.505Z,7.28
2023-04-27T11:26:11.189Z,6.75
2023-04-27T11:28:38.442Z,6.25
2023-04-27T11:31:06.041Z,5.07
2023-04-27T11:33:33.112Z,5.25
2023-04-27T11:36:00.162Z,8.25
2023-04-27T11:38:32.630Z,5.90
2023-04-27T11:41:06.819Z,5.22
2023-04-27T11:43:33.906Z,9.10
2023-04-27T11:46:07.106Z,5.35
2023-04-27T11:48:36.754Z,6.70
2023-04-27T11:51:03.982Z,6.65
2023-04-27T11:53:40.085Z,7.13
2023-04-27T11:56:09.167Z,5.55
2023-04-27T11:58:36.947Z,4.97
2023-04-27T12:01:04.742Z,9.57
2023-04-27T12:03:32.086Z,8.10
2023-04-27T12:06:11.465Z,8.32
2023-04-27T12:08:43.460Z,6.95
2023-04-27T12:11:10.304Z,8.88
2023-04-27T12:13:37.171Z,6.30
2023-04-27T12:16:04.384Z,7.00
2023-04-27T12:18:31.381Z,8.18
2023-04-27T12:21:02.817Z,6.03
2023-04-27T12:23:30.268Z,8.02
2023-04-27T12:25:57.200Z,6.03
2023-04-27T12:28:24.079Z,7.30
2023-04-27T12:30:51.095Z,7.43
2023-04-27T12:33:18.092Z,7.28
2023-04-27T12:35:45.034Z,7.28
2023-04-27T12:38:11.945Z,8.50
2023-04-27T12:40:38.852Z,5.93
2023-04-27T12:43:07.041Z,6.88
2023-04-27T12:45:34.004Z,6.90
2023-04-27T12:48:03.404Z,8.68
2023-04-27T12:50:31.919Z,6.05
2023-04-27T12:52:58.966Z,8.27
2023-04-27T12:57:58.236Z,7.00
2023-04-27T13:00:25.223Z,7.45
2023-04-27T13:02:52.925Z,6.50
2023-04-27T13:05:20.730Z,6.07
2023-04-27T13:07:47.723Z,8.55
2023-04-27T13:10:14.732Z,7.63
2023-04-27T13:12:41.653Z,5.43
2023-04-27T13:15:09.556Z,7.20
2023-04-27T13:17:36.477Z,7.30
2023-04-27T13:20:03.646Z,7.78
2023-04-27T13:22:30.566Z,9.32
2023-04-27T13:24:57.476Z,6.15
2023-04-27T13:27:24.376Z,7.07
2023-04-27T13:29:51.525Z,6.72
2023-04-27T13:32:18.448Z,7.43
2023-04-27T13:34:45.381Z,8.95
2023-04-27T13:37:12.269Z,5.80
2023-04-27T13:39:39.126Z,6.05
2023-04-27T13:42:06.135Z,6.85
2023-04-27T13:44:33.041Z,4.95
2023-04-27T13:47:00.041Z,5.30
2023-04-27T13:49:27.008Z,5.45
2023-04-27T13:51:53.912Z,5.85
2023-04-27T13:54:21.114Z,5.43
2023-04-27T13:56:48.074Z,7.38
2023-04-27T13:59:15.258Z,5.07
2023-04-27T14:01:42.406Z,5.90
2023-04-27T14:04:09.456Z,6.97
2023-04-27T14:06:36.505Z,5.90
2023-04-27T14:09:03.545Z,6.38
2023-04-27T14:11:30.440Z,6.25
2023-04-27T14:13:57.329Z,4.88
2023-04-27T14:16:24.280Z,4.40
2023-04-27T14:18:51.180Z,6.88
2023-04-27T14:21:18.073Z,4.60
2023-04-27T14:23:44.973Z,6.05
2023-04-27T14:26:11.875Z,4.05
2023-04-27T14:28:38.761Z,6.13
2023-04-27T14:31:05.762Z,5.25
2023-04-27T14:33:32.659Z,4.22
2023-04-27T14:35:59.993Z,5.53
2023-04-27T14:38:26.863Z,4.07
2023-04-27T14:40:53.769Z,6.55
2023-04-27T14:43:20.863Z,4.88
2023-04-27T14:45:52.733Z,5.68
2023-04-27T14:48:22.503Z,5.72
2023-04-27T14:50:49.486Z,5.65
2023-04-27T14:53:16.436Z,5.85
2023-04-27T14:55:43.301Z,4.93
2023-04-27T14:58:10.222Z,7.60
2023-04-27T15:00:37.191Z,7.70
2023-04-27T15:03:04.437Z,6.00
2023-04-27T15:05:31.435Z,4.68
2023-04-27T15:07:58.290Z,6.00
2023-04-27T15:10:25.177Z,4.72
2023-04-27T15:12:52.041Z,7.88
2023-04-27T15:15:18.929Z,5.13
2023-04-27T15:17:45.949Z,6.32
2023-04-27T15:20:13.074Z,7.13
2023-04-27T15:22:40.017Z,7.65
2023-04-27T15:25:07.329Z,4.55
2023-04-27T15:27:34.235Z,8.98
2023-04-27T15:30:01.142Z,5.10
2023-04-27T15:32:27.990Z,6.13
2023-04-27T15:34:54.924Z,7.80
2023-04-27T15:37:21.868Z,7.25
2023-04-27T15:39:48.824Z,7.68
2023-04-27T15:42:15.715Z,6.47
2023-04-27T15:44:42.608Z,10.45
2023-04-27T15:47:09.556Z,6.05
2023-04-27T15:49:42.745Z,5.78
2023-04-27T15:52:20.839Z,5.18
2023-04-27T15:54:47.753Z,6.78
2023-04-27T15:57:14.658Z,7.22
2023-04-27T15:59:41.699Z,6.80
2023-04-27T16:02:08.662Z,6.93
2023-04-27T16:04:35.639Z,6.80
2023-04-27T16:07:02.580Z,8.18
2023-04-27T16:09:29.452Z,8.77
2023-04-27T16:11:56.459Z,7.22
2023-04-27T16:14:23.366Z,6.78
2023-04-27T16:16:50.329Z,5.78
2023-04-27T16:19:18.202Z,6.88
2023-04-27T16:21:45.308Z,5.90
2023-04-27T16:24:12.308Z,5.70
2023-04-27T16:26:39.262Z,4.82
2023-04-27T16:29:06.159Z,7.15
2023-04-27T16:31:33.080Z,9.25
2023-04-27T16:33:59.989Z,5.93
2023-04-27T16:36:26.877Z,6.47
2023-04-27T16:38:53.791Z,5.32
2023-04-27T16:41:21.041Z,4.72
2023-04-27T16:43:49.219Z,5.18
2023-04-27T16:46:16.226Z,4.88
2023-04-27T16:48:43.292Z,6.68
2023-04-27T16:51:10.250Z,8.43
2023-04-27T16:53:37.334Z,7.00
2023-04-27T16:56:04.576Z,5.82
2023-04-27T16:58:31.564Z,7.55
2023-04-27T17:00:58.514Z,6.95
2023-04-27T17:03:25.543Z,10.05
2023-04-27T17:05:52.818Z,9.25
2023-04-27T17:08:19.721Z,7.65
2023-04-27T17:10:46.601Z,7.03
2023-04-27T17:13:13.478Z,9.57
2023-04-27T17:15:40.617Z,7.22
2023-04-27T17:18:07.708Z,8.52
2023-04-27T17:20:34.683Z,7.05
2023-04-27T17:23:01.593Z,5.55
2023-04-27T17:25:28.580Z,6.85
2023-04-27T17:27:55.601Z,6.40
2023-04-27T17:30:22.730Z,4.35
2023-04-27T17:32:49.715Z,4.72
2023-04-27T17:35:16.695Z,8.65
2023-04-27T17:37:43.577Z,7.85
2023-04-27T17:40:11.278Z,6.40
2023-04-27T17:42:38.286Z,10.48
2023-04-27T17:45:05.812Z,9.15
2023-04-27T17:47:32.737Z,6.43
2023-04-27T17:49:59.606Z,7.32
2023-04-27T17:52:26.476Z,9.75
2023-04-27T17:54:53.349Z,9.35
2023-04-27T17:57:20.253Z,7.55
2023-04-27T17:59:47.112Z,6.28
2023-04-27T18:02:14.059Z,7.32
2023-04-27T18:04:41.060Z,8.25
2023-04-27T18:07:08.001Z,9.18
2023-04-27T18:09:34.941Z,11.20
2023-04-27T18:12:01.808Z,9.00
2023-04-27T18:14:28.744Z,8.25
2023-04-27T18:16:55.783Z,5.78
2023-04-27T18:19:22.966Z,4.43
2023-04-27T18:21:49.902Z,5.28
2023-04-27T18:24:16.782Z,5.55
2023-04-27T18:26:43.665Z,4.20
2023-04-27T18:29:10.564Z,6.28
2023-04-27T18:31:37.445Z,5.00
2023-04-27T18:34:04.380Z,3.58
2023-04-27T18:36:31.268Z,3.50
2023-04-27T18:38:58.157Z,4.63
2023-04-27T18:41:25.144Z,4.10
2023-04-27T18:43:52.090Z,4.22
2023-04-27T18:46:19.108Z,3.60
2023-04-27T18:48:46.036Z,3.65
2023-04-27T18:51:12.921Z,3.65
2023-04-27T18:53:39.846Z,3.88
2023-04-27T18:56:08.031Z,3.53
2023-04-27T18:58:35.828Z,5.97
2023-04-27T19:01:02.825Z,3.63
2023-04-27T19:03:29.935Z,2.88
2023-04-27T19:05:56.952Z,3.63
2023-04-27T19:08:23.885Z,3.45
2023-04-27T19:10:53.849Z,4.03
2023-04-27T19:13:20.768Z,6.75
2023-04-27T19:15:47.700Z,4.18
2023-04-27T19:18:14.596Z,2.45
2023-04-27T19:20:41.583Z,2.10
2023-04-27T19:23:08.600Z,3.63
2023-04-27T19:25:35.559Z,3.55
2023-04-27T19:28:02.465Z,3.03
2023-04-27T19:30:29.479Z,3.13
2023-04-27T19:32:56.507Z,3.35
2023-04-27T19:35:23.522Z,3.75
2023-04-27T19:37:50.610Z,6.88
2023-04-27T19:40:17.700Z,5.47
2023-04-27T19:42:44.606Z,3.65
2023-04-27T19:45:11.748Z,4.35
2023-04-27T19:47:38.680Z,5.47
2023-04-27T19:50:06.377Z,4.00
2023-04-27T19:52:33.288Z,2.97
2023-04-27T19:55:00.295Z,4.20
2023-04-27T19:57:27.264Z,3.03
2023-04-27T19:59:54.161Z,4.68
2023-04-27T20:02:21.294Z,5.82
2023-04-27T20:04:48.393Z,6.22
2023-04-27T20:07:15.681Z,11.25
2023-04-27T20:09:42.633Z,7.22
2023-04-27T20:12:19.378Z,4.68
2023-04-27T20:14:56.139Z,6.30
2023-04-27T20:17:23.108Z,8.30
2023-04-27T20:19:50.021Z,6.78
2023-04-27T20:22:16.962Z,7.57
2023-04-27T20:24:43.950Z,8.13
2023-04-27T20:27:10.914Z,5.72
2023-04-27T20:29:37.884Z,5.35
2023-04-27T20:32:05.357Z,9.77
2023-04-27T20:34:32.470Z,6.20
2023-04-27T20:36:59.388Z,5.80
2023-04-27T20:39:26.244Z,5.78
2023-04-27T20:41:53.123Z,5.50
2023-04-27T20:44:20.036Z,6.13
2023-04-27T20:46:46.910Z,4.47
2023-04-27T20:49:19.019Z,6.95
2023-04-27T20:51:48.781Z,5.78
2023-04-27T20:54:15.785Z,6.93
2023-04-27T20:56:42.812Z,7.13
2023-04-27T20:59:09.722Z,7.70
2023-04-27T21:01:36.664Z,5.97
2023-04-27T21:04:03.774Z,7.07
2023-04-27T21:06:30.887Z,9.82
2023-04-27T21:08:57.832Z,7.60
2023-04-27T21:11:25.195Z,6.13
2023-04-27T21:13:52.714Z,7.07
2023-04-27T21:16:19.654Z,5.68
2023-04-27T21:18:46.585Z,8.25
2023-04-27T21:21:13.688Z,7.07
2023-04-27T21:23:40.602Z,8.07
2023-04-27T21:26:07.727Z,8.75
2023-04-27T21:28:34.671Z,5.75
2023-04-27T21:31:01.652Z,6.35
2023-04-27T21:33:28.640Z,7.50
2023-04-27T21:35:55.512Z,8.70
2023-04-27T21:38:22.394Z,7.57
2023-04-27T21:40:49.218Z,7.82
2023-04-27T21:43:16.071Z,7.38
2023-04-27T21:45:42.989Z,7.20
2023-04-27T21:48:09.923Z,7.13
2023-04-27T21:50:36.861Z,5.88
2023-04-27T21:53:03.860Z,6.82
2023-04-27T21:55:30.743Z,7.07
2023-04-27T21:57:57.602Z,8.07
2023-04-27T22:00:24.583Z,8.25
2023-04-27T22:02:51.723Z,9.20
2023-04-27T22:05:19.665Z,6.95
2023-04-27T22:07:47.057Z,6.65
2023-04-27T22:10:13.965Z,6.90
2023-04-27T22:12:40.922Z,8.88
2023-04-27T22:15:08.674Z,7.07
2023-04-27T22:17:35.629Z,9.10
2023-04-27T22:20:02.612Z,6.15
2023-04-27T22:22:29.514Z,8.32
2023-04-27T22:24:56.398Z,6.82
2023-04-27T22:27:24.765Z,6.85
2023-04-27T22:29:53.186Z,6.72
2023-04-27T22:32:20.190Z,8.05
2023-04-27T22:34:47.165Z,8.48
2023-04-27T22:37:14.072Z,7.55
2023-04-27T22:39:41.008Z,7.15
2023-04-27T22:42:07.945Z,6.28
2023-04-27T22:44:34.901Z,6.57
2023-04-27T22:47:01.853Z,7.63
2023-04-27T22:49:28.955Z,5.82
2023-04-27T22:51:55.897Z,7.55
2023-04-27T22:54:23.149Z,6.82
2023-04-27T22:56:50.297Z,6.30
2023-04-27T22:59:17.205Z,7.40
2023-04-27T23:01:44.190Z,7.72
2023-04-27T23:04:11.260Z,7.72
2023-04-27T23:06:38.320Z,6.38
2023-04-27T23:09:05.290Z,6.38
2023-04-27T23:11:32.195Z,5.43
2023-04-27T23:13:59.159Z,7.72
2023-04-27T23:16:26.279Z,6.80
2023-04-27T23:18:53.175Z,6.50
2023-04-27T23:21:20.077Z,7.03
2023-04-27T23:23:47.018Z,9.93
2023-04-27T23:26:14.666Z,5.47
2023-04-27T23:28:41.758Z,6.55
2023-04-27T23:31:09.415Z,7.63
2023-04-27T23:33:36.399Z,5.57
2023-04-27T23:36:03.615Z,7.13
2023-04-27T23:38:30.480Z,5.72
2023-04-27T23:40:57.366Z,6.55
2023-04-27T23:43:24.301Z,8.45
2023-04-27T23:45:51.795Z,5.60
2023-04-27T23:48:19.258Z,6.78
2023-04-27T23:50:46.171Z,5.30
2023-04-27T23:53:13.055Z,5.18
2023-04-27T23:55:40.047Z,7.63
2023-04-27T23:58:06.977Z,6.95
